Time;durP1;ratioP1;P1;durP2;ratioP2;P2;SDS_P1;SDS_P2;PMS_P1;PMS_P2;Temp;Humidity;BMP_temperature;BMP_pressure;BME280_temperature;BME280_humidity;BME280_pressure;Samples;Min_cycle;Max_cycle;Signal;HPM_P1;HPM_P2
2023/07/25 00:01:34;;;;;;;3.10;2.80;;;;;;;21.42;86.92;94939.97;4931032;29;20567;-86
2023/07/25 00:04:32;;;;;;;3.15;2.63;;;;;;;21.48;86.57;94922.44;4930615;29;20249;-87
2023/07/25 00:09:45;;;;;;;3.58;3.00;;;;;;;21.50;86.35;94915.88;4930289;29;20204;-87
2023/07/25 00:15:19;;;;;;;3.28;2.80;;;;;;;21.45;87.40;94917.72;4912379;29;20244;-87
2023/07/25 00:23:18;;;;;;;2.92;2.63;;;;;;;21.53;86.60;94917.22;4923491;29;20237;-87
2023/07/25 00:25:49;;;;;;;3.00;2.80;;;;;;;21.52;86.82;94908.56;4932078;29;20260;-86
2023/07/25 00:29:00;;;;;;;3.30;2.95;;;;;;;21.51;86.77;94912.22;4934844;29;20209;-86
2023/07/25 00:31:32;;;;;;;3.15;2.85;;;;;;;21.45;86.83;94900.16;4936044;29;20577;-87
2023/07/25 00:34:06;;;;;;;2.88;2.63;;;;;;;21.48;86.81;94901.47;4933767;29;20264;-87
2023/07/25 00:36:40;;;;;;;3.10;2.67;;;;;;;21.48;87.24;94917.19;4931658;29;20217;-86
2023/07/25 00:39:57;;;;;;;2.80;2.60;;;;;;;21.47;86.94;94911.16;4936046;29;20264;-87
2023/07/25 00:42:30;;;;;;;3.78;2.70;;;;;;;21.44;87.40;94924.00;4923119;29;20202;-88
2023/07/25 00:47:46;;;;;;;3.95;3.28;;;;;;;21.42;87.49;94926.09;4933828;29;20220;-87
2023/07/25 00:50:13;;;;;;;2.88;2.40;;;;;;;21.42;87.37;94907.75;4933371;29;20477;-87
2023/07/25 00:52:39;;;;;;;3.30;3.00;;;;;;;21.38;87.78;94912.72;4934719;29;20212;-87
2023/07/25 00:55:09;;;;;;;2.80;2.60;;;;;;;21.37;88.00;94905.91;4934451;29;20891;-87
2023/07/25 00:57:36;;;;;;;3.03;2.72;;;;;;;21.38;87.33;94894.38;4934260;29;20209;-87
2023/07/25 01:00:04;;;;;;;3.28;2.97;;;;;;;21.39;87.14;94882.88;4934456;29;20476;-86
2023/07/25 01:02:34;;;;;;;2.97;2.67;;;;;;;21.36;87.47;94893.84;4935055;29;20213;-87
2023/07/25 01:05:00;;;;;;;3.55;2.80;;;;;;;21.38;87.31;94897.78;4932468;29;20241;-87
2023/07/25 01:07:30;;;;;;;2.85;2.63;;;;;;;21.36;87.34;94902.50;4932158;29;20225;-87
2023/07/25 01:09:59;;;;;;;2.80;2.50;;;;;;;21.31;86.87;94878.94;4934798;29;20206;-87
2023/07/25 01:12:29;;;;;;;2.80;2.60;;;;;;;21.27;86.85;94882.34;4927262;29;20205;-87
2023/07/25 01:14:58;;;;;;;2.85;2.65;;;;;;;21.28;86.60;94866.38;4934344;29;20232;-87
2023/07/25 01:17:34;;;;;;;3.22;2.75;;;;;;;21.27;87.13;94869.25;4935089;29;20206;-87
2023/07/25 01:20:06;;;;;;;2.83;2.63;;;;;;;21.25;87.54;94864.25;4934730;29;20209;-87
2023/07/25 01:22:51;;;;;;;2.60;2.40;;;;;;;21.27;87.17;94866.63;4925142;29;20205;-86
2023/07/25 01:25:21;;;;;;;2.72;2.53;;;;;;;21.25;86.57;94861.66;4934555;29;20213;-87
2023/07/25 01:27:48;;;;;;;2.80;2.60;;;;;;;21.26;86.60;94862.44;4934539;29;20217;-87
2023/07/25 01:30:14;;;;;;;2.58;2.38;;;;;;;21.25;86.75;94859.03;4934633;29;20209;-87
2023/07/25 01:35:30;;;;;;;3.15;2.60;;;;;;;21.19;87.27;94862.66;4979340;23;20231;-87
2023/07/25 01:37:59;;;;;;;2.70;2.50;;;;;;;21.27;87.22;94871.88;4962142;28;20243;-87
2023/07/25 01:40:27;;;;;;;2.80;2.60;;;;;;;21.28;86.62;94866.38;4951505;28;20215;-87
2023/07/25 01:42:53;;;;;;;2.80;2.60;;;;;;;21.25;86.43;94885.22;4953325;29;20208;-87
2023/07/25 01:45:20;;;;;;;2.95;2.60;;;;;;;21.24;87.01;94890.72;4952149;29;20196;-87
2023/07/25 01:47:46;;;;;;;2.90;2.70;;;;;;;21.11;87.02;94886.75;4953086;29;20197;-86
2023/07/25 01:50:13;;;;;;;3.47;2.90;;;;;;;21.04;87.66;94897.44;4952671;29;20710;-87
2023/07/25 01:52:39;;;;;;;2.90;2.70;;;;;;;21.00;87.34;94883.28;4953319;29;20580;-87
2023/07/25 01:55:07;;;;;;;3.65;2.63;;;;;;;21.07;86.98;94882.28;4950065;29;20861;-87
2023/07/25 01:57:34;;;;;;;2.67;2.47;;;;;;;21.06;86.85;94873.63;4952854;29;20209;-87
2023/07/25 02:00:01;;;;;;;3.38;2.58;;;;;;;21.08;86.25;94858.47;4952927;29;20719;-87
2023/07/25 02:02:27;;;;;;;3.10;2.80;;;;;;;21.14;86.09;94848.78;4952697;29;20248;-87
2023/07/25 02:05:03;;;;;;;3.10;2.80;;;;;;;21.18;85.50;94839.34;4953237;29;20714;-87
2023/07/25 02:07:36;;;;;;;3.35;2.63;;;;;;;21.22;84.98;94814.25;4944928;29;20636;-87
2023/07/25 02:10:08;;;;;;;3.95;2.92;;;;;;;21.24;84.82;94797.22;4952436;29;20256;-87
2023/07/25 02:12:36;;;;;;;2.95;2.70;;;;;;;21.15;86.59;94816.31;4951760;29;20556;-87
2023/07/25 02:15:16;;;;;;;3.33;2.90;;;;;;;21.09;87.23;94840.91;4952859;29;20231;-86
2023/07/25 02:17:46;;;;;;;3.60;2.75;;;;;;;21.08;86.77;94823.63;4953559;29;20255;-87
2023/07/25 02:20:25;;;;;;;3.10;2.80;;;;;;;21.10;86.84;94798.78;4939663;29;20202;-88
2023/07/25 02:23:00;;;;;;;3.08;2.67;;;;;;;20.96;88.07;94768.94;4945043;29;20217;-88
2023/07/25 02:25:38;;;;;;;3.20;2.90;;;;;;;20.89;89.72;94781.47;4955927;29;20203;-87
2023/07/25 02:28:16;;;;;;;3.30;3.00;;;;;;;20.92;89.93;94826.25;4953092;29;20216;-87
2023/07/25 02:30:44;;;;;;;3.38;2.75;;;;;;;21.01;89.64;94821.28;4955436;29;20571;-87
2023/07/25 02:33:28;;;;;;;5.03;2.92;;;;;;;21.08;89.76;94831.50;4954488;29;20562;-88
2023/07/25 02:38:39;;;;;;;4.03;3.10;;;;;;;21.01;89.64;94839.59;4954580;29;20201;-87
2023/07/25 02:41:06;;;;;;;3.42;3.13;;;;;;;20.95;89.80;94841.44;4955207;29;20263;-87
2023/07/25 02:43:37;;;;;;;3.83;3.00;;;;;;;20.93;88.94;94835.66;4951922;29;20328;-87
2023/07/25 02:46:16;;;;;;;4.03;2.70;;;;;;;20.92;88.29;94828.84;4955085;29;20221;-87
2023/07/25 02:48:45;;;;;;;4.60;3.28;;;;;;;20.94;88.20;94839.84;4955187;28;20263;-87
2023/07/25 02:51:13;;;;;;;3.55;2.88;;;;;;;20.95;88.76;94840.66;4955110;29;20782;-87
2023/07/25 02:53:47;;;;;;;3.53;2.95;;;;;;;20.91;88.89;94842.19;4955263;29;20236;-87
2023/07/25 02:56:14;;;;;;;3.40;2.70;;;;;;;20.85;89.21;94846.63;4955286;29;20207;-87
2023/07/25 02:58:52;;;;;;;4.30;2.47;;;;;;;20.80;89.32;94832.75;4955026;29;20189;-88
2023/07/25 03:01:27;;;;;;;6.28;2.78;;;;;;;20.79;89.86;94826.72;4954149;29;20219;-87
2023/07/25 03:04:02;;;;;;;3.13;2.83;;;;;;;20.75;90.47;94828.31;4949875;29;20860;-87
2023/07/25 03:06:32;;;;;;;3.05;2.75;;;;;;;20.75;90.35;94827.50;4955096;29;20615;-87
2023/07/25 03:09:03;;;;;;;3.13;2.72;;;;;;;20.76;90.11;94810.78;4955521;29;20212;-88
2023/07/25 03:11:39;;;;;;;2.80;2.60;;;;;;;20.80;89.68;94817.81;4955682;29;20729;-88
2023/07/25 03:14:09;;;;;;;2.80;2.60;;;;;;;20.76;90.65;94836.94;4953982;29;20255;-87
2023/07/25 03:16:53;;;;;;;3.92;2.88;;;;;;;20.69;91.33;94843.19;4953379;29;20204;-87
2023/07/25 03:19:20;;;;;;;3.13;2.90;;;;;;;20.69;91.49;94842.41;4946018;29;20209;-87
2023/07/25 03:21:55;;;;;;;3.08;2.80;;;;;;;20.72;90.93;94844.50;4934210;29;20228;-87
2023/07/25 03:24:35;;;;;;;4.35;2.70;;;;;;;20.72;90.98;94830.66;4936735;29;20716;-86
2023/07/25 03:27:09;;;;;;;3.75;2.92;;;;;;;20.65;91.83;94836.13;4953082;29;20220;-86
2023/07/25 03:29:42;;;;;;;3.22;2.92;;;;;;;20.69;91.87;94847.63;4953007;29;20208;-87
2023/07/25 03:32:12;;;;;;;4.18;3.47;;;;;;;20.69;91.56;94837.19;4951027;29;20213;-87
2023/07/25 03:34:50;;;;;;;3.33;3.03;;;;;;;20.67;90.84;94831.41;4952718;29;20240;-87
2023/07/25 03:37:17;;;;;;;3.00;2.80;;;;;;;20.72;91.08;94828.03;4952810;29;20291;-87
2023/07/25 03:39:52;;;;;;;3.33;2.85;;;;;;;20.65;91.66;94841.34;4952099;29;20208;-86
2023/07/25 03:42:29;;;;;;;3.20;2.90;;;;;;;20.61;91.87;94856.75;4945012;29;20208;-87
2023/07/25 03:48:30;;;;;;;4.35;2.97;;;;;;;20.63;91.76;94846.81;4925653;29;20632;-87
2023/07/25 03:51:25;;;;;;;3.45;3.10;;;;;;;20.59;89.23;94806.53;4962201;29;20224;-87
2023/07/25 03:54:04;;;;;;;3.83;2.88;;;;;;;20.58;89.85;94807.59;4959307;29;20221;-86
2023/07/25 03:56:31;;;;;;;4.03;2.90;;;;;;;20.60;90.27;94815.16;4953171;29;20225;-85
2023/07/25 03:58:57;;;;;;;3.60;3.30;;;;;;;20.55;90.08;94809.94;4957402;29;20205;-86
2023/07/25 04:01:25;;;;;;;3.15;2.88;;;;;;;20.56;90.05;94816.75;4963168;28;20196;-86
2023/07/25 04:03:51;;;;;;;3.20;2.90;;;;;;;20.53;89.27;94799.72;4964690;29;20224;-86
2023/07/25 04:06:18;;;;;;;3.30;2.95;;;;;;;20.49;88.13;94780.38;4966041;29;20662;-86
2023/07/25 04:08:44;;;;;;;3.88;2.97;;;;;;;20.42;88.44;94786.88;4966521;29;20205;-85
2023/07/25 04:11:12;;;;;;;3.22;2.90;;;;;;;20.38;88.53;94791.84;4964010;29;20205;-84
2023/07/25 04:13:39;;;;;;;6.03;3.55;;;;;;;20.38;89.04;94793.69;4965244;29;20295;-86
2023/07/25 04:16:06;;;;;;;4.93;3.58;;;;;;;20.38;89.42;94804.13;4965056;29;20204;-85
2023/07/25 04:18:34;;;;;;;5.22;3.35;;;;;;;20.29;90.00;94817.66;4965076;29;20613;-85
2023/07/25 04:21:00;;;;;;;3.85;3.22;;;;;;;20.27;90.53;94817.13;4960206;29;20204;-85
2023/07/25 04:23:29;;;;;;;4.20;3.08;;;;;;;20.21;90.01;94810.28;4963988;29;20228;-86
2023/07/25 04:25:55;;;;;;;10.95;9.95;;;;;;;20.22;90.63;94824.16;4964288;29;20209;-85
2023/07/25 04:28:22;;;;;;;4.20;3.80;;;;;;;20.17;89.91;94816.31;4962219;29;20280;-87
2023/07/25 04:30:48;;;;;;;4.22;3.75;;;;;;;20.18;89.34;94805.59;4961056;29;20211;-84
2023/07/25 04:33:14;;;;;;;3.85;3.38;;;;;;;20.16;89.63;94818.13;4960724;29;20256;-85
2023/07/25 04:35:45;;;;;;;3.00;2.78;;;;;;;20.19;89.54;94822.84;4960776;29;20209;-84
2023/07/25 04:38:11;;;;;;;4.30;3.90;;;;;;;20.16;89.31;94815.53;4962144;29;20205;-87
2023/07/25 04:40:38;;;;;;;3.30;2.90;;;;;;;20.13;88.06;94799.56;4962803;29;20213;-85
2023/07/25 04:43:04;;;;;;;4.38;3.45;;;;;;;20.10;88.38;94789.59;4960913;29;20259;-85
2023/07/25 04:45:30;;;;;;;3.72;3.30;;;;;;;20.11;87.43;94776.28;4960885;29;20233;-86
2023/07/25 04:47:57;;;;;;;3.35;2.78;;;;;;;20.13;86.75;94762.97;4961305;29;20232;-84
2023/07/25 04:50:23;;;;;;;4.80;3.20;;;;;;;20.13;87.69;94773.41;4960960;29;20197;-86
2023/07/25 04:52:52;;;;;;;3.40;3.10;;;;;;;20.16;87.62;94778.94;4952738;29;20216;-87
2023/07/25 04:55:19;;;;;;;3.72;2.90;;;;;;;20.15;87.46;94769.50;4953401;29;20224;-87
2023/07/25 04:57:45;;;;;;;7.90;7.10;;;;;;;20.17;87.77;94783.13;4936330;29;20206;-86
2023/07/25 05:02:58;;;;;;;7.03;3.60;;;;;;;20.24;86.03;94738.41;4938479;29;20267;-86
2023/07/25 05:05:32;;;;;;;3.80;3.45;;;;;;;20.23;86.49;94747.31;4954910;29;20200;-86
2023/07/25 05:10:46;;;;;;;4.43;3.20;;;;;;;20.02;87.30;94749.84;4953184;29;20224;-86
2023/07/25 05:13:23;;;;;;;3.30;3.00;;;;;;;20.11;87.42;94759.81;4953643;28;20674;-87
2023/07/25 05:18:42;;;;;;;3.75;2.90;;;;;;;19.92;87.10;94739.34;4952367;29;20236;-87
2023/07/25 05:21:13;;;;;;;3.47;3.05;;;;;;;19.83;88.93;94763.59;4954111;29;20675;-87
2023/07/25 05:29:23;;;;;;;3.70;2.97;;;;;;;19.56;89.85;94743.63;4953440;29;20617;-87
2023/07/25 05:31:56;;;;;;;3.40;3.10;;;;;;;19.51;90.04;94754.03;4954154;29;20614;-86
2023/07/25 05:34:30;;;;;;;3.50;3.20;;;;;;;19.52;90.04;94766.06;4954043;29;20231;-86
2023/07/25 05:36:58;;;;;;;3.00;2.72;;;;;;;19.41;90.69;94767.00;4954124;29;20228;-86
2023/07/25 05:39:34;;;;;;;11.48;10.35;;;;;;;19.37;91.38;94780.81;4953576;29;20227;-86
2023/07/25 05:42:07;;;;;;;4.00;3.70;;;;;;;19.41;91.01;94771.44;4952244;29;20252;-87
2023/07/25 05:44:37;;;;;;;3.35;3.05;;;;;;;19.46;90.59;94756.56;4953242;29;20225;-86
2023/07/25 05:47:05;;;;;;;3.08;2.80;;;;;;;19.52;90.07;94744.38;4956716;29;20608;-87
2023/07/25 05:49:32;;;;;;;3.80;2.95;;;;;;;19.54;90.31;94726.63;4955893;29;20240;-87
2023/07/25 05:52:02;;;;;;;4.35;2.80;;;;;;;19.56;90.08;94703.69;4954997;29;20219;-87
2023/07/25 05:54:35;;;;;;;3.53;2.58;;;;;;;19.46;89.21;94682.69;4938415;29;20221;-87
2023/07/25 05:57:07;;;;;;;3.47;2.90;;;;;;;19.38;90.35;94693.63;4942270;29;20208;-87
2023/07/25 05:59:36;;;;;;;3.65;3.00;;;;;;;19.28;91.66;94702.97;4954321;29;20305;-87
2023/07/25 06:02:04;;;;;;;3.70;2.92;;;;;;;19.41;91.89;94719.22;4956630;28;20291;-87
2023/07/25 06:04:56;;;;;;;3.20;2.90;;;;;;;19.55;90.82;94713.34;4955645;28;20221;-87
2023/07/25 06:07:34;;;;;;;4.13;2.90;;;;;;;19.57;89.30;94698.19;4956616;29;20311;-87
2023/07/25 06:10:06;;;;;;;4.55;2.72;;;;;;;19.54;90.04;94695.31;4956680;29;20216;-86
2023/07/25 06:12:44;;;;;;;4.93;4.22;;;;;;;19.57;91.69;94724.31;4953733;29;20228;-87
2023/07/25 06:15:13;;;;;;;4.25;3.22;;;;;;;19.68;90.61;94714.69;4955183;29;20235;-87
2023/07/25 06:17:44;;;;;;;4.32;3.25;;;;;;;19.73;90.75;94695.66;4941243;29;20213;-86
2023/07/25 06:20:15;;;;;;;5.28;3.33;;;;;;;19.70;91.67;94698.78;4935620;29;20209;-87
2023/07/25 06:22:43;;;;;;;3.70;3.08;;;;;;;19.84;90.76;94698.03;4934908;29;20208;-88
2023/07/25 06:25:19;;;;;;;3.53;3.20;;;;;;;19.94;89.42;94674.56;4934283;29;20228;-86
2023/07/25 06:27:51;;;;;;;5.55;3.30;;;;;;;19.91;89.17;94656.00;4934415;29;20227;-87
2023/07/25 06:30:26;;;;;;;8.82;6.13;;;;;;;19.97;88.83;94649.75;4947906;29;20291;-87
2023/07/25 06:33:09;;;;;;;4.65;4.18;;;;;;;19.94;89.18;94642.44;4954111;29;20247;-86
2023/07/25 06:35:39;;;;;;;4.13;3.80;;;;;;;19.99;89.98;94652.91;4954507;29;20204;-86
2023/07/25 06:38:13;;;;;;;3.97;3.20;;;;;;;20.11;88.69;94629.13;4954535;29;20616;-87
2023/07/25 06:40:48;;;;;;;3.22;2.85;;;;;;;20.15;88.41;94617.91;4954886;29;20229;-87
2023/07/25 06:43:26;;;;;;;3.78;3.40;;;;;;;20.11;89.62;94663.13;4953519;29;20208;-87
2023/07/25 06:46:06;;;;;;;3.95;2.97;;;;;;;20.14;88.67;94658.16;4952794;29;20208;-87
2023/07/25 06:48:35;;;;;;;3.40;3.10;;;;;;;20.15;88.50;94656.34;4951366;29;20248;-86
2023/07/25 06:51:07;;;;;;;5.68;3.17;;;;;;;20.25;88.52;94672.03;4948309;29;20291;-87
2023/07/25 06:53:36;;;;;;;4.38;2.85;;;;;;;20.23;87.45;94661.81;4953481;29;20594;-86
2023/07/25 06:56:04;;;;;;;2.95;2.75;;;;;;;20.32;87.37;94662.91;4948340;29;20209;-86
2023/07/25 06:58:38;;;;;;;3.25;2.88;;;;;;;20.46;87.54;94657.19;4938288;29;20200;-87
2023/07/25 07:01:05;;;;;;;3.40;3.03;;;;;;;20.42;88.54;94677.81;4952807;29;20217;-87
2023/07/25 07:03:48;;;;;;;2.97;2.75;;;;;;;20.46;88.01;94678.88;4953377;29;20236;-87
2023/07/25 07:06:30;;;;;;;2.83;2.63;;;;;;;20.45;87.60;94679.94;4954307;29;20385;-87
2023/07/25 07:09:18;;;;;;;3.28;2.97;;;;;;;20.49;87.20;94682.81;4953796;29;20232;-87
2023/07/25 07:11:54;;;;;;;5.00;2.88;;;;;;;20.46;87.67;94680.72;4952948;29;20197;-87
2023/07/25 07:15:20;;;;;;;;;;;;;;;;;;;;;
2023/07/25 07:21:10;;;;;;;2.97;2.72;;;;;;;20.51;87.88;94712.91;4922029;29;20319;-87
2023/07/25 07:26:32;;;;;;;3.42;2.70;;;;;;;20.60;87.32;94705.31;4907236;29;20210;-87
2023/07/25 07:29:00;;;;;;;4.05;2.75;;;;;;;20.58;86.64;94696.97;4915323;29;20225;-86
2023/07/25 07:31:48;;;;;;;2.40;2.20;;;;;;;20.70;85.96;94700.09;4915709;29;20228;-87
2023/07/25 07:34:30;;;;;;;4.90;2.53;;;;;;;20.73;86.82;94710.03;4924206;29;20252;-86
2023/07/25 07:36:59;;;;;;;2.80;2.60;;;;;;;20.67;86.40;94711.06;4921892;29;20342;-87
2023/07/25 07:39:44;;;;;;;3.47;2.60;;;;;;;20.74;86.38;94716.06;4939624;29;20216;-87
2023/07/25 07:42:20;;;;;;;4.63;3.00;;;;;;;20.66;88.56;94753.97;4938123;29;20575;-86
2023/07/25 07:45:13;;;;;;;3.17;2.50;;;;;;;20.70;87.47;94744.56;4924342;29;20249;-88
2023/07/25 07:47:46;;;;;;;4.65;2.78;;;;;;;20.83;87.47;94740.66;4937760;29;20292;-86
2023/07/25 07:53:28;;;;;;;5.97;5.47;;;;;;;20.84;87.40;94737.78;4935849;29;20213;-87
2023/07/25 07:55:57;;;;;;;3.65;2.50;;;;;;;20.79;86.07;94718.66;4910125;29;20313;-87
2023/07/25 08:01:30;;;;;;;2.50;2.30;;;;;;;20.82;86.58;94720.75;4932471;29;20245;-86
2023/07/25 08:03:57;;;;;;;2.28;2.10;;;;;;;20.73;84.81;94696.19;4926220;29;20226;-86
2023/07/25 08:06:27;;;;;;;2.72;2.53;;;;;;;20.79;84.94;94687.25;4917731;29;20201;-86
2023/07/25 08:09:02;;;;;;;2.45;2.25;;;;;;;20.69;83.55;94670.53;4929406;29;20239;-87
2023/07/25 08:11:37;;;;;;;2.10;1.98;;;;;;;20.56;82.54;94647.53;4937425;29;20202;-87
2023/07/25 08:27:31;;;;;;;2.28;2.08;;;;;;;20.34;84.97;94713.09;4845424;29;20219;-89
2023/07/25 08:30:05;;;;;;;2.55;1.90;;;;;;;20.26;86.25;94737.13;4858652;29;20204;-90
2023/07/25 08:33:15;;;;;;;2.20;2.00;;;;;;;20.17;85.93;94728.22;4897712;29;20206;-87
2023/07/25 08:36:14;;;;;;;2.22;2.03;;;;;;;20.10;85.81;94739.94;4876518;29;20222;-86
2023/07/25 08:38:56;;;;;;;2.40;2.20;;;;;;;19.85;83.94;94696.22;4923425;29;20734;-87
2023/07/25 08:48:12;;;;;;;5.00;4.60;;;;;;;19.93;84.21;94690.50;4917357;29;20731;-88
2023/07/25 08:51:18;;;;;;;3.15;2.33;;;;;;;19.98;83.72;94690.53;4925117;29;20276;-87
2023/07/25 08:57:07;;;;;;;2.95;2.47;;;;;;;20.01;83.55;94693.38;4902735;29;20216;-87
2023/07/25 09:02:29;;;;;;;2.72;1.90;;;;;;;19.91;81.15;94659.41;4893707;29;20206;-86
2023/07/25 09:04:56;;;;;;;2.33;2.20;;;;;;;19.91;81.74;94669.84;4928233;29;20217;-88
2023/07/25 09:07:23;;;;;;;2.50;2.30;;;;;;;20.01;81.50;94663.88;4938185;29;20241;-87
2023/07/25 09:09:55;;;;;;;3.35;2.40;;;;;;;19.98;80.17;94646.91;4937559;29;20232;-87
2023/07/25 09:12:24;;;;;;;2.30;2.10;;;;;;;20.04;80.77;94668.56;4936972;29;20214;-88
2023/07/25 09:15:01;;;;;;;2.20;2.00;;;;;;;20.06;80.29;94670.94;4935858;29;20880;-88
2023/07/25 09:17:29;;;;;;;2.80;2.00;;;;;;;20.05;79.71;94651.84;4938420;29;20209;-86
2023/07/25 09:20:03;;;;;;;2.35;2.15;;;;;;;19.97;78.73;94623.63;4937962;29;20264;-87
2023/07/25 09:22:37;;;;;;;2.45;2.25;;;;;;;20.00;78.88;94621.28;4938999;29;20201;-86
2023/07/25 09:25:36;;;;;;;2.25;2.05;;;;;;;19.99;78.67;94621.56;4940501;29;20239;-87
2023/07/25 09:28:14;;;;;;;2.30;2.10;;;;;;;20.01;78.63;94616.84;4931972;29;20312;-87
2023/07/25 09:34:00;;;;;;;2.38;2.08;;;;;;;20.04;79.07;94618.94;4914741;29;20237;-88
2023/07/25 09:36:38;;;;;;;6.20;5.68;;;;;;;20.09;78.17;94598.03;4929120;29;20217;-87
2023/07/25 09:39:40;;;;;;;2.83;2.20;;;;;;;20.03;78.49;94599.06;4932981;29;20202;-87
2023/07/25 09:42:12;;;;;;;2.35;2.15;;;;;;;19.95;79.29;94629.13;4936429;29;20998;-87
2023/07/25 09:47:33;;;;;;;2.33;2.13;;;;;;;19.95;77.76;94587.31;4929598;29;20313;-88
2023/07/25 09:50:00;;;;;;;3.20;2.00;;;;;;;19.84;76.32;94554.34;4927258;29;20221;-87
2023/07/25 09:52:26;;;;;;;2.45;2.25;;;;;;;19.90;76.58;94550.72;4936822;29;20209;-87
2023/07/25 09:54:56;;;;;;;2.63;1.90;;;;;;;19.87;75.87;94538.16;4938083;29;20482;-87
2023/07/25 09:57:30;;;;;;;2.00;1.90;;;;;;;19.98;76.21;94554.66;4936994;29;20778;-88
2023/07/25 09:59:59;;;;;;;1.80;1.70;;;;;;;20.09;75.25;94540.53;4931489;29;20236;-87
2023/07/25 10:05:08;;;;;;;2.13;1.90;;;;;;;20.28;75.25;94538.19;4932571;29;20225;-88
2023/07/25 10:07:38;;;;;;;2.92;1.90;;;;;;;20.34;75.61;94545.00;4922000;29;20289;-87
2023/07/25 10:10:20;;;;;;;;;;;;;;;;;;;;;
2023/07/25 10:13:11;;;;;;;2.00;1.80;;;;;;;21.23;73.20;94491.16;4917928;29;20229;-87
2023/07/25 10:16:05;;;;;;;2.42;1.90;;;;;;;21.55;72.19;94460.06;4925806;29;20216;-87
2023/07/25 10:22:42;;;;;;;1.70;1.60;;;;;;;22.02;67.77;94343.38;4867181;29;20212;-87
2023/07/25 10:25:36;;;;;;;2.13;1.75;;;;;;;21.99;66.84;94302.75;5001492;23;20304;-88
2023/07/25 10:28:20;;;;;;;1.58;1.48;;;;;;;21.85;66.93;94312.34;4906002;29;20225;-87
2023/07/25 10:30:54;;;;;;;2.10;1.65;;;;;;;21.69;66.65;94303.84;4914501;29;20221;-87
2023/07/25 10:33:38;;;;;;;2.10;1.90;;;;;;;21.52;66.70;94319.22;4925130;29;20305;-87
2023/07/25 10:36:18;;;;;;;1.98;1.63;;;;;;;21.27;65.34;94259.97;4915168;29;20233;-88
2023/07/25 10:39:01;;;;;;;2.50;1.50;;;;;;;21.14;66.06;94292.00;4917288;29;20711;-87
2023/07/25 10:41:38;;;;;;;1.73;1.60;;;;;;;21.03;65.53;94261.69;4916639;29;20265;-87
2023/07/25 10:44:45;;;;;;;1.95;1.60;;;;;;;20.94;65.83;94279.84;4913837;29;20253;-87
2023/07/25 10:51:00;;;;;;;1.75;1.65;;;;;;;21.44;64.66;94251.69;4884000;29;20202;-87
2023/07/25 10:54:25;;;;;;;1.60;1.50;;;;;;;21.63;65.09;94259.63;4962500;23;20214;-87
2023/07/25 11:00:34;;;;;;;3.45;1.67;;;;;;;21.44;64.26;94217.66;4896554;29;20210;-87
2023/07/25 11:10:13;;;;;;;1.60;1.50;;;;;;;21.12;66.17;94291.47;4889155;29;20599;-87
2023/07/25 11:23:06;;;;;;;1.75;1.65;;;;;;;21.25;66.41;94287.47;4769116;30;20283;-88
2023/07/25 11:25:44;;;;;;;1.75;1.65;;;;;;;21.39;65.93;94280.53;4788622;29;20243;-87
2023/07/25 11:28:37;;;;;;;4.95;4.55;;;;;;;21.44;66.09;94271.88;4883013;29;20207;-87
2023/07/25 11:31:31;;;;;;;1.65;1.50;;;;;;;21.42;64.98;94248.56;4890997;29;20731;-87
2023/07/25 11:34:11;;;;;;;1.63;1.50;;;;;;;21.44;64.44;94216.88;4896681;29;20658;-87
2023/07/25 11:40:19;;;;;;;1.50;1.40;;;;;;;21.38;65.19;94284.22;4874000;29;20200;-88
2023/07/25 11:50:03;;;;;;;1.50;1.40;;;;;;;20.74;61.26;94117.03;4896251;29;20246;-86
2023/07/25 11:52:56;;;;;;;1.50;1.40;;;;;;;20.53;61.90;94153.00;4887710;29;20656;-87
2023/07/25 11:55:40;;;;;;;2.53;1.40;;;;;;;20.34;61.21;94108.41;4897347;29;20234;-87
2023/07/25 11:58:23;;;;;;;;;;;;;;;;;;;;;
2023/07/25 12:00:55;;;;;;;2.22;1.70;;;;;;;20.14;63.87;94197.41;4896021;29;20194;-86
2023/07/25 12:06:47;;;;;;;1.88;1.77;;;;;;;20.13;63.54;94201.84;4944443;23;20221;-87
2023/07/25 12:09:14;;;;;;;2.10;1.67;;;;;;;20.05;64.10;94225.16;4924143;29;20386;-87
2023/07/25 12:12:04;;;;;;;1.83;1.73;;;;;;;20.11;64.09;94217.03;4945931;29;20216;-87
2023/07/25 12:21:31;;;;;;;1.80;1.60;;;;;;;20.30;67.57;94340.81;4841337;29;20201;-88
2023/07/25 12:30:23;;;;;;;2.30;2.10;;;;;;;21.52;65.59;94269.44;4880602;29;20752;-87
2023/07/25 12:41:50;;;;;;;3.53;1.90;;;;;;;22.23;61.02;94131.56;4948841;29;20811;-88
2023/07/25 12:48:31;;;;;;;;;;;;;;;;;;;;;
2023/07/25 13:11:01;;;;;;;2.67;2.30;;;;;;;22.56;64.16;94193.47;4897350;29;20338;-87
2023/07/25 13:24:08;;;;;;;2.15;1.83;;;;;;;23.58;58.44;93979.78;4802306;29;20243;-88
2023/07/25 13:30:41;;;;;;;2.65;1.45;;;;;;;23.96;56.66;93882.97;4745763;30;20996;-88
2023/07/25 13:33:08;;;;;;;1.50;1.40;;;;;;;24.03;56.09;93859.66;4790861;29;20213;-88
2023/07/25 13:35:35;;;;;;;1.67;1.50;;;;;;;24.08;55.61;93817.44;4817292;29;20245;-88
2023/07/25 13:38:12;;;;;;;1.38;1.27;;;;;;;24.08;54.76;93796.41;4879751;29;20313;-87
2023/07/25 13:40:39;;;;;;;1.60;1.50;;;;;;;24.21;54.76;93789.50;4937412;29;20548;-88
2023/07/25 13:43:13;;;;;;;2.05;1.85;;;;;;;24.30;55.41;93813.97;4941043;29;20208;-87
2023/07/25 13:45:50;;;;;;;1.88;1.67;;;;;;;24.42;55.26;93827.34;4947518;29;20204;-87
2023/07/25 13:49:37;;;;;;;2.97;1.40;;;;;;;24.52;54.50;93773.63;4943514;29;20210;-87
2023/07/25 13:53:06;;;;;;;1.58;1.48;;;;;;;24.52;54.39;93754.44;4890590;29;20711;-86
2023/07/25 13:59:24;;;;;;;1.67;1.58;;;;;;;24.03;56.77;93837.84;4712376;30;20310;-88
2023/07/25 14:15:01;;;;;;;3.85;3.55;;;;;;;23.22;59.04;93945.63;4753115;30;21175;-87
2023/07/25 14:17:34;;;;;;;8.60;7.75;;;;;;;23.23;59.25;93970.03;4850100;29;20354;-88
2023/07/25 14:20:04;;;;;;;6.18;5.68;;;;;;;23.17;60.11;94026.34;4932721;29;20658;-88
2023/07/25 14:22:33;;;;;;;2.28;2.08;;;;;;;22.99;60.60;94056.88;4955304;29;20312;-87
2023/07/25 14:25:12;;;;;;;2.33;1.58;;;;;;;22.26;62.78;94089.81;4954458;29;20212;-87
2023/07/25 14:27:40;;;;;;;3.42;2.00;;;;;;;21.63;65.53;94218.50;4948313;29;20289;-88
2023/07/25 14:30:34;;;;;;;;;;;;;;;;;;;;;
2023/07/25 14:33:21;;;;;;;;;;;;;;;;;;;;;
2023/07/25 14:58:19;;;;;;;2.85;2.15;;;;;;;21.80;70.97;94316.84;5057343;23;20730;-86
2023/07/25 15:00:51;;;;;;;3.60;2.53;;;;;;;21.61;73.70;94393.50;4934989;29;20245;-86
2023/07/25 15:03:19;;;;;;;3.65;2.95;;;;;;;21.68;74.17;94414.94;4934482;29;20240;-87
2023/07/25 15:05:51;;;;;;;2.72;2.53;;;;;;;21.65;75.43;94456.63;4907497;29;20206;-86
2023/07/25 15:08:17;;;;;;;5.25;3.22;;;;;;;21.55;75.12;94439.13;4915919;29;20210;-87
2023/07/25 15:10:44;;;;;;;3.40;2.63;;;;;;;21.67;74.10;94415.22;4920430;29;20220;-87
2023/07/25 15:13:10;;;;;;;5.30;4.50;;;;;;;21.64;72.13;94360.75;4918166;29;20209;-86
2023/07/25 15:15:38;;;;;;;4.03;3.20;;;;;;;21.84;73.54;94406.94;4914232;29;20221;-86
2023/07/25 15:18:13;;;;;;;4.30;2.75;;;;;;;22.07;71.85;94371.38;4896913;29;20305;-86
2023/07/25 15:20:43;;;;;;;3.50;2.97;;;;;;;22.22;69.21;94310.91;4908263;29;20194;-86
2023/07/25 15:23:09;;;;;;;5.55;2.83;;;;;;;22.23;70.65;94344.72;4914070;29;20202;-86
2023/07/25 15:25:36;;;;;;;3.17;2.67;;;;;;;22.24;69.41;94316.66;4915819;29;20234;-87
2023/07/25 15:28:12;;;;;;;2.50;2.30;;;;;;;22.25;70.98;94352.31;4916585;29;20273;-87
2023/07/25 15:30:53;;;;;;;3.40;2.90;;;;;;;22.22;70.32;94322.19;4916930;29;20226;-87
2023/07/25 15:33:26;;;;;;;2.90;2.55;;;;;;;22.02;71.39;94357.28;4929589;29;20603;-87
2023/07/25 15:35:52;;;;;;;4.28;3.30;;;;;;;21.94;72.74;94378.78;4934832;29;20233;-87
2023/07/25 15:38:19;;;;;;;40.38;13.05;;;;;;;21.91;72.84;94392.47;4915415;29;20616;-88
2023/07/25 15:41:01;;;;;;;142.02;32.35;;;;;;;21.82;74.95;94435.25;4903899;29;20234;-88
2023/07/25 15:43:53;;;;;;;30.45;8.02;;;;;;;21.79;75.62;94462.00;4913501;29;20237;-87
2023/07/25 15:46:36;;;;;;;10.77;4.00;;;;;;;21.77;77.40;94491.09;4921915;29;20277;-86
2023/07/25 15:49:09;;;;;;;2.90;2.30;;;;;;;21.74;77.94;94510.00;4943170;29;20217;-85
2023/07/25 15:51:47;;;;;;;2.38;2.17;;;;;;;21.72;77.60;94525.22;4923777;29;20233;-86
2023/07/25 15:54:18;;;;;;;4.60;2.20;;;;;;;21.64;76.97;94507.44;4916725;29;20230;-87
2023/07/25 15:57:00;;;;;;;3.53;2.30;;;;;;;21.60;78.92;94543.88;4914838;29;20284;-87
2023/07/25 16:00:06;;;;;;;2.20;2.00;;;;;;;21.53;79.93;94560.97;4916303;29;20199;-86
2023/07/25 16:08:57;;;;;;;1.90;1.70;;;;;;;21.30;76.58;94564.97;4839063;29;20212;-87
2023/07/25 16:11:43;;;;;;;3.58;1.50;;;;;;;20.68;71.39;94443.22;4912227;29;20222;-87